Time;durP1;ratioP1;P1;durP2;ratioP2;P2;SDS_P1;SDS_P2;PMS_P1;PMS_P2;Temp;Humidity;BMP_temperature;BMP_pressure;BME280_temperature;BME280_humidity;BME280_pressure;Samples;Min_cycle;Max_cycle;Signal;HPM_P1;HPM_P2
2021/06/15 00:02:00;;;;;;;11.20;1.70;;;21.30;62.90;;;;;;5092236;28;20050;-63
2021/06/15 00:04:26;;;;;;;5.90;1.50;;;21.20;62.90;;;;;;5090894;28;20390;-63
2021/06/15 00:06:52;;;;;;;12.77;1.90;;;21.20;62.90;;;;;;5092388;28;20032;-63
2021/06/15 00:09:18;;;;;;;10.00;1.45;;;21.20;63.00;;;;;;5091767;28;20035;-63
2021/06/15 00:11:43;;;;;;;7.82;1.50;;;21.10;63.00;;;;;;5092049;28;20030;-63
2021/06/15 00:14:09;;;;;;;15.43;2.20;;;21.10;63.00;;;;;;5093188;28;20475;-62
2021/06/15 00:16:35;;;;;;;9.18;1.42;;;21.10;63.10;;;;;;5089479;28;20028;-62
2021/06/15 00:19:01;;;;;;;8.52;2.00;;;21.00;63.10;;;;;;5073379;28;20368;-63
2021/06/15 00:21:26;;;;;;;11.60;1.65;;;21.00;63.10;;;;;;5092369;28;20167;-62
2021/06/15 00:23:52;;;;;;;12.10;1.98;;;21.00;63.10;;;;;;5091051;28;20062;-63
2021/06/15 00:26:18;;;;;;;6.85;1.85;;;21.00;63.20;;;;;;5092726;28;20035;-62
2021/06/15 00:28:43;;;;;;;10.00;2.28;;;20.90;63.20;;;;;;5092424;28;20028;-62
2021/06/15 00:31:09;;;;;;;11.80;1.55;;;20.90;63.30;;;;;;5092191;28;20040;-62
2021/06/15 00:33:35;;;;;;;8.90;2.45;;;20.90;63.40;;;;;;5089391;28;20024;-62
2021/06/15 00:36:00;;;;;;;10.68;1.75;;;20.80;63.30;;;;;;5089198;28;20024;-62
2021/06/15 00:38:26;;;;;;;9.98;1.60;;;20.80;63.30;;;;;;5088633;28;20073;-62
2021/06/15 00:40:52;;;;;;;11.95;1.52;;;20.80;63.30;;;;;;5084581;28;20114;-63
2021/06/15 00:43:18;;;;;;;9.82;1.70;;;20.70;63.20;;;;;;5052937;28;20047;-62
2021/06/15 00:45:43;;;;;;;14.55;1.60;;;20.80;63.30;;;;;;5071545;28;20032;-62
2021/06/15 00:48:27;;;;;;;7.35;1.63;;;20.70;63.20;;;;;;5062048;28;20055;-62
2021/06/15 00:50:53;;;;;;;6.65;1.38;;;20.70;63.20;;;;;;5069031;28;20036;-63
2021/06/15 00:53:19;;;;;;;7.30;1.45;;;20.60;63.20;;;;;;5066468;28;20035;-62
2021/06/15 00:55:46;;;;;;;7.90;2.03;;;20.60;63.30;;;;;;5072547;28;20036;-62
2021/06/15 00:58:12;;;;;;;13.02;1.75;;;20.60;63.40;;;;;;5064920;28;20024;-62
2021/06/15 01:00:38;;;;;;;5.00;1.55;;;20.50;63.50;;;;;;5071378;28;20086;-62
2021/06/15 01:03:05;;;;;;;7.45;1.70;;;20.60;63.60;;;;;;5071326;28;20115;-63
2021/06/15 01:05:31;;;;;;;11.48;1.70;;;20.50;63.50;;;;;;5054234;28;20074;-62
2021/06/15 01:08:18;;;;;;;5.82;1.42;;;20.50;63.70;;;;;;5050540;28;20024;-63
2021/06/15 01:10:54;;;;;;;6.25;1.48;;;20.50;63.80;;;;;;5070423;28;20106;-62
2021/06/15 01:13:39;;;;;;;9.10;1.50;;;20.40;63.90;;;;;;5050915;28;20024;-62
2021/06/15 01:16:14;;;;;;;9.68;2.45;;;20.40;64.00;;;;;;5053537;28;20039;-62
2021/06/15 01:18:51;;;;;;;11.95;2.63;;;20.40;64.20;;;;;;5053691;28;20379;-62
2021/06/15 01:21:19;;;;;;;9.88;1.50;;;20.40;64.40;;;;;;5058597;28;20037;-63
2021/06/15 01:24:02;;;;;;;15.80;2.13;;;20.30;64.40;;;;;;5027037;28;20112;-62
2021/06/15 01:26:46;;;;;;;14.05;2.08;;;20.30;64.50;;;;;;5045887;28;20411;-62
2021/06/15 01:29:16;;;;;;;7.65;1.77;;;20.30;64.60;;;;;;5060045;28;20032;-62
2021/06/15 01:31:47;;;;;;;13.00;1.48;;;20.20;64.60;;;;;;5053366;28;20040;-62
2021/06/15 01:34:23;;;;;;;8.23;1.67;;;20.20;64.80;;;;;;5037255;28;20111;-63
2021/06/15 01:37:00;;;;;;;11.90;1.75;;;20.20;64.70;;;;;;5051669;28;20506;-63
2021/06/15 01:39:29;;;;;;;10.23;1.70;;;20.20;64.80;;;;;;5070222;28;20027;-63
2021/06/15 01:42:07;;;;;;;9.05;1.73;;;20.10;64.80;;;;;;5070078;28;20112;-62
2021/06/15 01:44:36;;;;;;;7.18;1.70;;;20.20;64.90;;;;;;5063704;28;20526;-62
2021/06/15 01:47:04;;;;;;;5.97;1.38;;;20.10;64.90;;;;;;5051849;28;20086;-62
2021/06/15 01:49:43;;;;;;;12.73;1.58;;;20.10;65.00;;;;;;5070386;28;20033;-62
2021/06/15 01:52:12;;;;;;;12.55;2.30;;;20.10;65.20;;;;;;5053942;28;20024;-62
2021/06/15 01:54:41;;;;;;;7.13;1.50;;;20.00;65.20;;;;;;5071794;28;20124;-63
2021/06/15 01:57:13;;;;;;;7.47;1.55;;;20.00;65.40;;;;;;5051711;28;20027;-62
2021/06/15 01:59:43;;;;;;;11.23;2.83;;;20.10;65.60;;;;;;5049301;28;20029;-62
2021/06/15 02:02:11;;;;;;;9.57;2.08;;;20.00;65.60;;;;;;5044378;28;20059;-62
2021/06/15 02:04:42;;;;;;;2.65;0.98;;;20.00;65.60;;;;;;5071021;28;20448;-62
2021/06/15 02:07:13;;;;;;;11.82;1.52;;;20.00;65.80;;;;;;5071866;28;20483;-62
2021/06/15 02:09:45;;;;;;;8.50;1.73;;;20.00;66.00;;;;;;5052900;28;20025;-62
2021/06/15 02:12:17;;;;;;;9.30;1.85;;;20.00;65.90;;;;;;5073075;28;20109;-62
2021/06/15 02:14:59;;;;;;;8.88;1.80;;;20.00;65.80;;;;;;5056167;28;20028;-62
2021/06/15 02:17:33;;;;;;;6.22;1.58;;;19.90;65.50;;;;;;5056183;28;20029;-62
2021/06/15 02:20:05;;;;;;;12.82;1.88;;;19.90;65.40;;;;;;5056282;28;20028;-62
2021/06/15 02:22:33;;;;;;;11.73;1.95;;;19.90;65.40;;;;;;5075369;28;20379;-62
2021/06/15 02:25:01;;;;;;;14.38;1.92;;;19.80;65.50;;;;;;5055388;28;20112;-63
2021/06/15 02:27:29;;;;;;;12.13;2.30;;;19.80;65.50;;;;;;5075186;28;20031;-62
2021/06/15 02:29:57;;;;;;;9.23;1.67;;;19.80;65.50;;;;;;5073626;28;20090;-62
2021/06/15 02:32:30;;;;;;;10.38;1.90;;;19.80;65.40;;;;;;5056437;28;20017;-62
2021/06/15 02:34:59;;;;;;;10.40;2.10;;;19.80;65.40;;;;;;5057323;28;20115;-62
2021/06/15 02:37:34;;;;;;;8.93;2.08;;;19.70;65.40;;;;;;5043393;28;20100;-62
2021/06/15 02:40:03;;;;;;;8.18;1.88;;;19.70;65.50;;;;;;5056108;28;20032;-62
2021/06/15 02:42:41;;;;;;;8.57;1.73;;;19.70;65.50;;;;;;5049214;28;20024;-62
2021/06/15 02:45:09;;;;;;;9.25;1.85;;;19.60;65.40;;;;;;5076269;28;20028;-62
2021/06/15 02:47:36;;;;;;;9.50;2.17;;;19.60;65.40;;;;;;5065542;28;20417;-62
2021/06/15 02:50:07;;;;;;;7.28;1.98;;;19.60;65.40;;;;;;5072784;28;20046;-61
2021/06/15 02:52:48;;;;;;;17.13;2.08;;;19.60;65.40;;;;;;5076218;28;20034;-61
2021/06/15 02:55:27;;;;;;;9.40;2.08;;;19.60;65.50;;;;;;5075285;28;20030;-62
2021/06/15 02:57:53;;;;;;;7.45;1.65;;;19.50;65.50;;;;;;5093573;28;20552;-62
2021/06/15 03:00:20;;;;;;;9.90;1.80;;;19.50;65.50;;;;;;5094194;28;20048;-62
2021/06/15 03:02:46;;;;;;;13.70;2.20;;;19.50;65.50;;;;;;5075420;28;20780;-62
2021/06/15 03:05:17;;;;;;;13.10;2.50;;;19.50;65.40;;;;;;5094612;28;20433;-62
2021/06/15 03:07:46;;;;;;;;;;;19.50;65.40;;;;;;5092790;28;20107;-61
2021/06/15 03:10:15;;;;;;;8.82;1.95;;;19.40;65.30;;;;;;5076283;28;19958;-63
2021/06/15 03:12:45;;;;;;;9.32;1.85;;;19.50;65.40;;;;;;5075154;28;20024;-62
2021/06/15 03:15:14;;;;;;;9.20;2.13;;;19.40;65.50;;;;;;5076006;28;20024;-62
2021/06/15 03:17:51;;;;;;;9.60;2.20;;;19.30;65.50;;;;;;5074681;28;20024;-62
2021/06/15 03:20:23;;;;;;;4.60;1.30;;;19.40;65.50;;;;;;5092119;28;20052;-62
2021/06/15 03:23:31;;;;;;;8.35;1.92;;;19.40;66.10;;;;;;5075680;28;20494;-62
2021/06/15 03:26:03;;;;;;;8.90;1.90;;;19.40;65.40;;;;;;5085130;28;20043;-62
2021/06/15 03:28:31;;;;;;;10.00;1.70;;;19.30;65.40;;;;;;5069584;28;20080;-62
2021/06/15 03:31:02;;;;;;;9.38;1.73;;;19.30;65.40;;;;;;5076203;28;20093;-62
2021/06/15 03:33:35;;;;;;;8.77;1.50;;;19.20;65.40;;;;;;5071716;28;20032;-62
2021/06/15 03:36:04;;;;;;;11.73;2.20;;;19.30;65.50;;;;;;5075241;28;20069;-62
2021/06/15 03:38:33;;;;;;;9.52;1.83;;;19.20;65.40;;;;;;5074779;28;20036;-62
2021/06/15 03:41:00;;;;;;;12.82;1.83;;;19.20;65.40;;;;;;5075291;28;20430;-62
2021/06/15 03:43:28;;;;;;;8.95;2.10;;;19.20;65.40;;;;;;5083644;28;20106;-62
2021/06/15 03:46:12;;;;;;;6.75;1.58;;;19.10;65.40;;;;;;5072752;28;20047;-62
2021/06/15 03:48:41;;;;;;;11.32;2.13;;;19.20;65.50;;;;;;5071835;28;20082;-62
2021/06/15 03:51:11;;;;;;;10.88;2.30;;;19.10;65.50;;;;;;5065676;28;20063;-62
2021/06/15 03:53:38;;;;;;;11.75;1.83;;;19.10;65.70;;;;;;5066246;28;20024;-62
2021/06/15 03:56:07;;;;;;;9.98;1.80;;;19.10;65.80;;;;;;5052920;28;20035;-62
2021/06/15 03:58:33;;;;;;;10.25;2.13;;;19.10;65.90;;;;;;5073059;28;20417;-62
2021/06/15 04:01:01;;;;;;;20.17;2.88;;;19.10;66.00;;;;;;5072743;28;20066;-62
2021/06/15 04:03:30;;;;;;;7.82;1.90;;;19.00;66.00;;;;;;5072794;28;20028;-62
2021/06/15 04:05:57;;;;;;;14.13;2.10;;;19.10;66.10;;;;;;5072948;28;20039;-62
2021/06/15 04:08:24;;;;;;;10.38;1.90;;;19.00;66.20;;;;;;5073317;28;20056;-62
2021/06/15 04:10:52;;;;;;;8.68;1.70;;;19.00;66.10;;;;;;5071492;28;20040;-62
2021/06/15 04:13:20;;;;;;;13.57;2.40;;;19.00;66.20;;;;;;5059955;28;20424;-62
2021/06/15 04:15:50;;;;;;;6.40;1.60;;;19.00;66.30;;;;;;5072379;28;20151;-63
2021/06/15 04:18:19;;;;;;;7.35;1.73;;;19.00;66.20;;;;;;5070075;28;20036;-62
2021/06/15 04:20:48;;;;;;;8.07;1.80;;;19.00;66.20;;;;;;5073306;28;20032;-62
2021/06/15 04:23:19;;;;;;;10.00;2.05;;;19.00;66.20;;;;;;5071466;28;20025;-62
2021/06/15 04:25:46;;;;;;;6.28;1.67;;;19.00;66.40;;;;;;5072372;28;20035;-62
2021/06/15 04:28:14;;;;;;;9.57;1.63;;;19.00;66.50;;;;;;5072700;28;20024;-62
2021/06/15 04:30:40;;;;;;;6.57;1.52;;;19.00;66.60;;;;;;5071756;28;20040;-62
2021/06/15 04:33:09;;;;;;;14.95;2.33;;;19.00;66.70;;;;;;5072414;28;20025;-62
2021/06/15 04:35:48;;;;;;;12.50;2.10;;;19.00;66.80;;;;;;5071879;28;20055;-62
2021/06/15 04:38:37;;;;;;;10.10;2.17;;;19.00;66.90;;;;;;5072060;28;20056;-62
2021/06/15 04:41:15;;;;;;;9.38;1.90;;;19.00;66.90;;;;;;5063670;28;20529;-62
2021/06/15 04:43:49;;;;;;;11.70;1.70;;;19.00;67.00;;;;;;5084234;28;20054;-62
2021/06/15 04:46:27;;;;;;;8.05;2.00;;;19.00;67.10;;;;;;5090825;28;20067;-62
2021/06/15 04:49:03;;;;;;;15.60;2.30;;;19.00;67.20;;;;;;5091993;28;20085;-62
2021/06/15 04:51:31;;;;;;;14.52;2.00;;;18.90;67.10;;;;;;5091798;28;20070;-62
2021/06/15 04:53:58;;;;;;;11.18;1.80;;;19.00;67.40;;;;;;5077572;28;20085;-62
2021/06/15 04:56:27;;;;;;;20.95;2.25;;;19.00;67.60;;;;;;5092735;28;20028;-62
2021/06/15 04:58:53;;;;;;;8.35;1.60;;;19.00;67.60;;;;;;5091372;28;20020;-62
2021/06/15 05:01:19;;;;;;;13.20;2.13;;;19.00;67.70;;;;;;5092036;28;20475;-62
2021/06/15 05:03:46;;;;;;;17.90;2.60;;;19.00;67.90;;;;;;5091187;28;20028;-62
2021/06/15 05:06:14;;;;;;;11.80;2.50;;;19.00;67.90;;;;;;5088331;28;20039;-62
2021/06/15 05:08:46;;;;;;;10.63;2.17;;;19.00;68.10;;;;;;5091182;28;20119;-62
2021/06/15 05:11:13;;;;;;;11.57;2.00;;;19.00;68.30;;;;;;5091979;28;20044;-64
2021/06/15 05:13:43;;;;;;;13.25;2.33;;;19.00;68.40;;;;;;5091063;28;20074;-65
2021/06/15 05:16:11;;;;;;;15.38;2.08;;;19.00;68.40;;;;;;5089372;28;20538;-61
2021/06/15 05:18:37;;;;;;;10.88;2.35;;;19.00;68.60;;;;;;5091620;28;20028;-62
2021/06/15 05:21:19;;;;;;;11.23;2.20;;;19.00;68.70;;;;;;5090849;28;20055;-63
2021/06/15 05:23:51;;;;;;;15.75;2.28;;;19.10;69.00;;;;;;5080775;28;20077;-60
2021/06/15 05:26:17;;;;;;;11.68;2.10;;;19.10;69.20;;;;;;5090322;28;20032;-60
2021/06/15 05:28:42;;;;;;;10.23;1.83;;;19.10;69.30;;;;;;5090551;28;20516;-61
2021/06/15 05:31:08;;;;;;;9.48;2.22;;;19.10;69.50;;;;;;5090591;28;20044;-60
2021/06/15 05:33:34;;;;;;;10.65;1.77;;;19.00;69.60;;;;;;5089743;28;20051;-60
2021/06/15 05:36:00;;;;;;;16.77;3.03;;;19.10;69.70;;;;;;5089966;28;20044;-61
2021/06/15 05:38:26;;;;;;;13.38;2.30;;;19.10;69.70;;;;;;5090617;28;20035;-61
2021/06/15 05:40:51;;;;;;;16.20;2.03;;;19.10;69.80;;;;;;5090528;28;20504;-66
2021/06/15 05:43:17;;;;;;;9.93;1.75;;;19.10;70.00;;;;;;5091442;28;20395;-60
2021/06/15 05:45:43;;;;;;;14.80;2.75;;;19.10;70.10;;;;;;5088340;28;20024;-60
2021/06/15 05:48:09;;;;;;;11.63;2.33;;;19.00;70.90;;;;;;5094440;28;20028;-60
2021/06/15 05:50:35;;;;;;;11.88;2.40;;;19.10;70.40;;;;;;5092649;28;20035;-61
2021/06/15 05:53:00;;;;;;;11.27;2.08;;;19.00;70.10;;;;;;5074958;28;20470;-60
2021/06/15 05:55:26;;;;;;;11.15;2.30;;;19.10;70.20;;;;;;5094693;28;20091;-61
2021/06/15 05:57:52;;;;;;;12.52;2.33;;;19.10;70.10;;;;;;5093563;28;20020;-61
2021/06/15 06:00:18;;;;;;;14.30;2.25;;;19.10;69.90;;;;;;5093317;28;20043;-61
2021/06/15 06:02:44;;;;;;;11.60;2.50;;;19.10;69.60;;;;;;5092173;28;20028;-61
2021/06/15 06:10:27;;;;;;;12.32;2.28;;;19.10;69.40;;;;;;5093158;28;20055;-61
2021/06/15 06:12:53;;;;;;;13.68;2.90;;;19.10;69.20;;;;;;5093028;28;20466;-61
2021/06/15 06:15:20;;;;;;;11.35;2.97;;;19.10;69.40;;;;;;5093185;28;20032;-61
2021/06/15 06:17:45;;;;;;;9.48;2.58;;;19.10;69.40;;;;;;5090917;28;20032;-61
2021/06/15 06:20:14;;;;;;;12.27;2.25;;;19.10;69.10;;;;;;5092679;28;20066;-61
2021/06/15 06:22:40;;;;;;;5.78;1.70;;;19.10;69.20;;;;;;5089661;28;20040;-61
2021/06/15 06:25:09;;;;;;;12.40;2.00;;;19.10;69.40;;;;;;5089446;28;20095;-61
2021/06/15 06:27:35;;;;;;;10.32;2.42;;;19.10;69.00;;;;;;5093398;28;20024;-61
2021/06/15 06:30:01;;;;;;;10.48;1.70;;;19.00;69.10;;;;;;5092139;28;20036;-61
2021/06/15 06:32:26;;;;;;;11.98;2.00;;;19.00;68.80;;;;;;5092434;28;20027;-60
2021/06/15 06:34:52;;;;;;;9.13;2.13;;;19.00;68.60;;;;;;5091956;28;20028;-65
2021/06/15 06:37:18;;;;;;;10.18;1.60;;;19.10;68.70;;;;;;5091489;28;20036;-62
2021/06/15 06:39:43;;;;;;;8.05;1.90;;;19.10;68.30;;;;;;5094540;28;20032;-62
2021/06/15 06:42:09;;;;;;;14.05;1.92;;;19.10;68.70;;;;;;5092777;28;20439;-63
2021/06/15 06:44:35;;;;;;;8.43;1.63;;;19.10;68.50;;;;;;5092121;28;20451;-63
2021/06/15 06:47:01;;;;;;;14.05;3.47;;;19.10;68.50;;;;;;5092729;28;20057;-62
2021/06/15 06:49:26;;;;;;;13.07;2.60;;;19.20;68.00;;;;;;5093063;28;20083;-63
2021/06/15 06:51:52;;;;;;;12.10;1.90;;;19.20;67.70;;;;;;5091388;28;20452;-63
2021/06/15 06:54:18;;;;;;;14.40;2.40;;;19.30;67.50;;;;;;5092172;28;20028;-62
2021/06/15 06:56:44;;;;;;;8.95;1.35;;;19.30;67.60;;;;;;5094316;28;20032;-62
2021/06/15 06:59:09;;;;;;;11.02;2.15;;;19.30;67.00;;;;;;5090980;28;20024;-63
2021/06/15 07:01:35;;;;;;;10.73;1.98;;;19.30;66.20;;;;;;5093705;28;20016;-62
2021/06/15 07:04:01;;;;;;;10.05;2.25;;;19.30;66.00;;;;;;5094137;28;20518;-62
2021/06/15 07:06:26;;;;;;;14.93;1.95;;;19.30;65.90;;;;;;5092184;28;20382;-62
2021/06/15 07:08:53;;;;;;;9.05;1.50;;;19.40;66.00;;;;;;5093367;28;20028;-62
2021/06/15 07:11:19;;;;;;;7.40;1.50;;;19.40;65.20;;;;;;5092494;28;20042;-62
2021/06/15 07:13:45;;;;;;;11.00;2.22;;;19.50;65.50;;;;;;5094005;28;20098;-62
2021/06/15 07:16:11;;;;;;;13.20;1.88;;;19.50;65.30;;;;;;5091600;28;20028;-62
2021/06/15 07:18:38;;;;;;;8.18;1.90;;;19.50;65.10;;;;;;5093594;28;20418;-62
2021/06/15 07:21:05;;;;;;;8.57;1.77;;;19.60;65.10;;;;;;5093402;28;20043;-62
2021/06/15 07:23:31;;;;;;;14.13;2.72;;;19.70;64.90;;;;;;5090941;28;20020;-63
2021/06/15 07:25:57;;;;;;;11.55;2.15;;;19.70;64.90;;;;;;5093393;28;20059;-62
2021/06/15 07:28:23;;;;;;;6.80;1.70;;;19.70;64.70;;;;;;5091291;28;20066;-63
2021/06/15 07:30:49;;;;;;;16.42;2.30;;;19.80;64.80;;;;;;5091220;28;20040;-63
2021/06/15 07:33:15;;;;;;;9.48;1.77;;;19.80;64.30;;;;;;5093178;28;20029;-63
2021/06/15 07:35:40;;;;;;;9.90;1.88;;;19.80;64.10;;;;;;5089989;28;20028;-63
2021/06/15 07:38:06;;;;;;;8.07;2.03;;;19.90;64.20;;;;;;5093693;28;20067;-62
2021/06/15 07:40:32;;;;;;;6.07;1.80;;;19.90;64.20;;;;;;5091418;28;20111;-63
2021/06/15 07:42:58;;;;;;;13.45;1.88;;;20.00;64.50;;;;;;5092190;28;20044;-63
2021/06/15 07:45:27;;;;;;;11.65;2.17;;;20.00;64.30;;;;;;5092346;28;20027;-63
2021/06/15 07:47:53;;;;;;;12.45;2.15;;;20.00;63.60;;;;;;5092987;28;20047;-63
2021/06/15 07:50:19;;;;;;;15.60;2.30;;;19.90;63.60;;;;;;5093192;28;20487;-63
2021/06/15 07:52:46;;;;;;;11.80;1.58;;;20.00;63.60;;;;;;5080543;28;20056;-63
2021/06/15 07:55:13;;;;;;;13.35;2.20;;;20.00;63.30;;;;;;5093064;28;20051;-62
2021/06/15 07:57:39;;;;;;;14.07;2.35;;;20.00;63.60;;;;;;5091017;28;20035;-63
2021/06/15 08:00:06;;;;;;;11.75;2.42;;;20.10;63.20;;;;;;5093773;28;20057;-63
2021/06/15 08:02:38;;;;;;;11.85;1.95;;;20.10;64.20;;;;;;5091486;28;20552;-63
2021/06/15 08:05:05;;;;;;;15.45;1.80;;;20.10;63.80;;;;;;5090906;28;20027;-62
2021/06/15 08:07:30;;;;;;;13.02;1.65;;;20.10;63.80;;;;;;5093018;28;20024;-62
2021/06/15 08:09:56;;;;;;;16.73;2.50;;;20.10;63.80;;;;;;5086327;28;20081;-62
2021/06/15 08:12:22;;;;;;;10.45;2.45;;;20.20;63.60;;;;;;5092582;28;20039;-63
2021/06/15 08:14:48;;;;;;;4.72;1.35;;;20.20;63.80;;;;;;5092694;28;20383;-63
2021/06/15 08:17:14;;;;;;;11.73;2.10;;;20.30;64.00;;;;;;5092458;28;20067;-63
2021/06/15 08:19:40;;;;;;;8.68;1.77;;;20.30;64.00;;;;;;5091926;28;20095;-62
2021/06/15 08:22:06;;;;;;;13.25;1.92;;;20.30;63.60;;;;;;5092272;28;20483;-63
2021/06/15 08:24:32;;;;;;;10.13;1.80;;;20.40;63.50;;;;;;5091398;28;20074;-63
2021/06/15 08:26:58;;;;;;;13.63;2.47;;;20.40;62.90;;;;;;5090939;28;20116;-63
2021/06/15 08:29:23;;;;;;;8.90;1.80;;;20.40;62.10;;;;;;5085845;28;20486;-63
2021/06/15 08:31:49;;;;;;;9.35;1.73;;;20.50;61.30;;;;;;5091935;28;20119;-62
2021/06/15 08:34:15;;;;;;;9.23;1.90;;;20.50;60.80;;;;;;5091903;28;20024;-63
2021/06/15 08:36:41;;;;;;;8.15;1.88;;;20.50;61.10;;;;;;5091916;28;20471;-63
2021/06/15 08:39:08;;;;;;;9.80;1.95;;;20.60;61.80;;;;;;5086185;28;20020;-63
2021/06/15 08:41:35;;;;;;;7.03;1.65;;;20.60;61.80;;;;;;5092333;28;20032;-63
2021/06/15 08:44:06;;;;;;;6.60;1.75;;;20.70;61.50;;;;;;5089051;28;20040;-63
2021/06/15 08:46:33;;;;;;;6.80;1.90;;;20.70;60.90;;;;;;5090384;28;20039;-62
2021/06/15 08:49:00;;;;;;;11.57;1.98;;;20.70;61.20;;;;;;5087175;28;20028;-63
2021/06/15 08:51:26;;;;;;;9.98;1.80;;;20.70;61.30;;;;;;5092269;28;20052;-63
2021/06/15 08:53:53;;;;;;;12.38;2.25;;;20.80;61.30;;;;;;5091933;28;20028;-62
2021/06/15 08:56:28;;;;;;;8.75;1.75;;;20.80;61.10;;;;;;5085701;28;20483;-62
2021/06/15 08:59:21;;;;;;;8.07;2.00;;;20.80;61.30;;;;;;5090386;28;20032;-63
2021/06/15 09:01:52;;;;;;;8.68;1.80;;;20.90;61.30;;;;;;5083020;28;20422;-63
2021/06/15 09:04:18;;;;;;;11.40;2.35;;;20.90;60.80;;;;;;5073228;28;20036;-63
2021/06/15 09:06:44;;;;;;;7.10;1.77;;;20.90;61.30;;;;;;5091486;28;20020;-65
2021/06/15 09:09:10;;;;;;;7.82;1.50;;;20.90;61.20;;;;;;5089138;28;20111;-62
2021/06/15 09:11:58;;;;;;;7.72;1.55;;;20.90;60.90;;;;;;5086047;28;20122;-62
2021/06/15 09:14:48;;;;;;;5.28;1.67;;;21.00;61.30;;;;;;5090941;28;20539;-62
2021/06/15 09:17:27;;;;;;;7.80;1.58;;;21.00;61.90;;;;;;5083845;28;20399;-62
2021/06/15 09:19:54;;;;;;;6.57;1.25;;;21.10;61.10;;;;;;5089581;28;20064;-62
2021/06/15 09:22:28;;;;;;;9.27;1.60;;;21.10;60.80;;;;;;5093314;28;20391;-62
2021/06/15 09:24:54;;;;;;;6.13;1.52;;;21.20;61.50;;;;;;5092855;28;20070;-62
2021/06/15 09:27:34;;;;;;;7.50;1.70;;;21.20;60.90;;;;;;5093456;28;20052;-62
2021/06/15 09:30:03;;;;;;;7.00;1.63;;;21.30;60.70;;;;;;5089899;28;20024;-62
2021/06/15 09:32:39;;;;;;;8.48;2.20;;;21.30;61.40;;;;;;5093337;28;20574;-62
2021/06/15 09:35:11;;;;;;;7.93;1.88;;;21.30;61.30;;;;;;5094807;28;20135;-62
2021/06/15 09:37:36;;;;;;;6.90;1.27;;;21.40;61.20;;;;;;5086438;28;20028;-64
2021/06/15 09:40:20;;;;;;;4.88;1.27;;;21.40;60.40;;;;;;5093632;28;20017;-63
2021/06/15 09:43:10;;;;;;;7.45;1.80;;;21.40;60.10;;;;;;5086872;28;20130;-61
2021/06/15 09:45:40;;;;;;;6.78;1.30;;;21.50;60.40;;;;;;5092960;28;20036;-60
2021/06/15 09:48:30;;;;;;;9.95;1.60;;;21.40;60.60;;;;;;5093140;28;20051;-60
2021/06/15 09:51:14;;;;;;;6.60;1.67;;;21.50;60.20;;;;;;5087647;28;20486;-60
2021/06/15 09:53:48;;;;;;;52.15;3.22;;;21.50;59.70;;;;;;5087526;28;20585;-60
2021/06/15 09:56:16;;;;;;;5.05;1.48;;;21.50;59.70;;;;;;5092423;28;20394;-60
2021/06/15 09:58:44;;;;;;;9.18;1.50;;;21.50;59.20;;;;;;5093633;28;20127;-60
2021/06/15 10:01:29;;;;;;;6.47;1.50;;;21.60;60.40;;;;;;5093050;28;20063;-61
2021/06/15 10:04:08;;;;;;;7.32;1.58;;;21.60;60.00;;;;;;5095023;28;20068;-61
2021/06/15 10:06:41;;;;;;;3.85;1.30;;;21.60;59.80;;;;;;5079716;28;20032;-60
2021/06/15 10:09:07;;;;;;;8.35;1.50;;;21.60;60.20;;;;;;5093757;28;20032;-60
2021/06/15 10:11:37;;;;;;;10.57;2.20;;;21.70;60.10;;;;;;5094404;28;20032;-61
2021/06/15 10:14:03;;;;;;;5.88;1.40;;;21.70;60.00;;;;;;5094386;28;20031;-64
2021/06/15 10:16:29;;;;;;;8.43;1.60;;;21.70;59.60;;;;;;5091160;28;20403;-64
2021/06/15 10:19:00;;;;;;;5.10;1.65;;;21.70;59.20;;;;;;5094485;28;20043;-64
2021/06/15 10:21:28;;;;;;;3.90;1.35;;;21.80;58.70;;;;;;5092847;28;20052;-63
2021/06/15 10:23:54;;;;;;;6.90;1.55;;;21.80;59.40;;;;;;5090460;28;20115;-62
2021/06/15 10:26:20;;;;;;;6.40;1.33;;;21.80;59.90;;;;;;5092373;28;20063;-62
2021/06/15 10:28:46;;;;;;;7.43;1.60;;;21.90;60.00;;;;;;5092865;28;20048;-62
2021/06/15 10:31:11;;;;;;;7.65;1.33;;;21.80;60.20;;;;;;5092833;28;20672;-62
2021/06/15 10:33:45;;;;;;;9.70;1.73;;;21.90;60.00;;;;;;5093733;28;20077;-62
2021/06/15 10:36:11;;;;;;;;;;;21.90;59.60;;;;;;5093719;28;20093;-62
2021/06/15 10:38:43;;;;;;;9.05;1.92;;;21.90;60.30;;;;;;5092368;28;19915;-62
2021/06/15 10:41:24;;;;;;;4.93;1.50;;;21.90;59.60;;;;;;5093643;28;20027;-62
2021/06/15 10:43:54;;;;;;;8.93;1.25;;;21.90;59.20;;;;;;5091961;28;20760;-62
2021/06/15 10:46:19;;;;;;;6.55;1.40;;;21.90;59.10;;;;;;5091999;28;20033;-62
2021/06/15 10:49:10;;;;;;;3.90;1.15;;;21.90;59.30;;;;;;5093178;28;20020;-62
2021/06/15 10:52:02;;;;;;;7.35;1.55;;;21.90;59.30;;;;;;5086402;28;20042;-62
2021/06/15 10:54:40;;;;;;;10.35;1.83;;;22.00;59.20;;;;;;5086969;28;20064;-62
2021/06/15 10:57:17;;;;;;;6.05;1.33;;;22.00;58.70;;;;;;5088218;28;20056;-62
2021/06/15 10:59:59;;;;;;;9.55;1.70;;;22.10;58.90;;;;;;5092135;28;20024;-62
2021/06/15 11:02:27;;;;;;;7.07;1.77;;;22.20;57.60;;;;;;5091954;28;20081;-62
2021/06/15 11:04:54;;;;;;;9.38;1.70;;;22.10;58.10;;;;;;5090956;28;20020;-62
2021/06/15 11:07:34;;;;;;;11.30;1.50;;;22.20;58.60;;;;;;5091350;28;20024;-62
2021/06/15 11:10:00;;;;;;;8.30;1.58;;;22.30;57.80;;;;;;5093041;28;20024;-62
2021/06/15 11:12:29;;;;;;;7.18;1.45;;;22.20;57.50;;;;;;5092796;28;20078;-62
2021/06/15 11:15:10;;;;;;;6.03;1.35;;;22.30;57.20;;;;;;5092764;28;20550;-62
2021/06/15 11:17:50;;;;;;;5.68;1.52;;;22.30;58.40;;;;;;5092834;28;20119;-62
2021/06/15 11:20:45;;;;;;;6.70;1.30;;;22.40;57.80;;;;;;5091996;28;20103;-62
2021/06/15 11:23:21;;;;;;;5.85;1.10;;;22.40;58.40;;;;;;5061595;28;20039;-62
2021/06/15 11:26:13;;;;;;;9.13;1.80;;;22.40;57.40;;;;;;5090983;28;20020;-62
2021/06/15 11:28:46;;;;;;;10.55;1.60;;;22.40;57.10;;;;;;5081229;28;20795;-62
2021/06/15 11:31:33;;;;;;;8.15;1.85;;;22.50;56.20;;;;;;5093626;28;20070;-62
2021/06/15 11:34:02;;;;;;;5.70;1.42;;;22.50;56.60;;;;;;5086805;28;20111;-62
2021/06/15 11:36:41;;;;;;;8.43;1.77;;;22.50;57.20;;;;;;5089152;28;20031;-62
2021/06/15 11:39:28;;;;;;;9.10;1.60;;;22.50;57.20;;;;;;5085232;28;20028;-62
2021/06/15 11:42:18;;;;;;;6.78;1.35;;;22.60;57.40;;;;;;5093510;28;20103;-62
2021/06/15 11:44:56;;;;;;;6.60;1.40;;;22.60;57.20;;;;;;5091474;28;20127;-62
2021/06/15 11:47:46;;;;;;;5.13;1.70;;;22.60;56.70;;;;;;5090031;28;20074;-63
2021/06/15 11:50:30;;;;;;;6.82;1.83;;;22.60;57.70;;;;;;5090194;28;20041;-62
2021/06/15 11:53:12;;;;;;;8.98;1.40;;;22.60;57.40;;;;;;5091375;28;20120;-63
2021/06/15 11:55:47;;;;;;;9.75;1.90;;;22.60;57.60;;;;;;5090170;28;20035;-64
2021/06/15 11:58:24;;;;;;;7.45;1.63;;;22.60;56.80;;;;;;5090147;28;20034;-65
2021/06/15 12:00:53;;;;;;;9.95;1.33;;;22.60;57.30;;;;;;5089644;28;20532;-62
2021/06/15 12:03:24;;;;;;;7.82;1.45;;;22.60;56.60;;;;;;5093478;28;20023;-62
2021/06/15 12:05:56;;;;;;;9.93;1.88;;;22.60;56.10;;;;;;5087482;28;20388;-62
2021/06/15 12:08:33;;;;;;;4.18;1.35;;;22.70;56.00;;;;;;5089141;28;20028;-63
2021/06/15 12:11:00;;;;;;;5.22;1.25;;;22.60;56.60;;;;;;5089710;28;20115;-62
2021/06/15 12:13:30;;;;;;;7.10;1.63;;;22.70;57.10;;;;;;5092649;28;20051;-62
2021/06/15 12:16:14;;;;;;;6.30;1.50;;;22.70;56.80;;;;;;5089031;28;20031;-62
2021/06/15 12:18:41;;;;;;;10.00;1.55;;;22.70;56.80;;;;;;5091670;28;20055;-65
2021/06/15 12:21:17;;;;;;;7.45;1.55;;;22.70;56.70;;;;;;5088135;28;20044;-65
2021/06/15 12:24:03;;;;;;;8.20;1.70;;;22.70;55.90;;;;;;5069252;28;20096;-65
2021/06/15 12:26:36;;;;;;;9.88;2.03;;;22.80;56.10;;;;;;5089107;28;20454;-65
2021/06/15 12:29:07;;;;;;;4.20;1.55;;;22.80;55.80;;;;;;5090435;28;20036;-65
2021/06/15 12:31:40;;;;;;;9.05;1.45;;;22.90;55.60;;;;;;5088904;28;20078;-62
2021/06/15 12:34:08;;;;;;;8.00;1.33;;;22.90;56.20;;;;;;5082888;28;20032;-62
2021/06/15 12:36:38;;;;;;;6.15;1.70;;;23.00;56.20;;;;;;5085922;28;20050;-61
2021/06/15 12:39:18;;;;;;;5.90;1.77;;;22.90;56.20;;;;;;5090241;28;20089;-62
2021/06/15 12:41:50;;;;;;;4.63;1.30;;;23.00;56.20;;;;;;5087012;28;20028;-62
2021/06/15 12:44:32;;;;;;;11.65;1.60;;;23.00;56.20;;;;;;5086647;28;20514;-62
2021/06/15 12:47:06;;;;;;;6.20;1.77;;;23.00;54.60;;;;;;5088473;28;20153;-62
2021/06/15 12:49:35;;;;;;;5.82;1.30;;;23.10;54.80;;;;;;5088154;28;20050;-62
2021/06/15 12:52:05;;;;;;;6.72;1.40;;;23.10;55.40;;;;;;5086930;28;20042;-61
2021/06/15 12:54:42;;;;;;;4.55;1.40;;;23.10;55.30;;;;;;5089331;28;20031;-62
2021/06/15 12:57:21;;;;;;;6.60;1.50;;;23.20;55.00;;;;;;5089259;28;20035;-61
2021/06/15 13:00:01;;;;;;;5.60;1.40;;;23.20;54.10;;;;;;5089494;28;20074;-62
2021/06/15 13:02:27;;;;;;;7.10;1.67;;;23.30;54.20;;;;;;5087170;28;20072;-62
2021/06/15 13:04:55;;;;;;;20.20;2.03;;;23.30;54.00;;;;;;5088750;28;20093;-63
2021/06/15 13:07:22;;;;;;;6.30;1.52;;;23.30;54.60;;;;;;5072186;28;20047;-63